Time;durP1;ratioP1;P1;durP2;ratioP2;P2;SDS_P1;SDS_P2;PMS_P1;PMS_P2;Temp;Humidity;BMP_temperature;BMP_pressure;BME280_temperature;BME280_humidity;BME280_pressure;Samples;Min_cycle;Max_cycle;Signal;HPM_P1;HPM_P2
2021/11/03 00:02:38;;;;;;;2.77;2.47;;;;;;;;;;4961539;28;20633;-86
2021/11/03 00:05:45;;;;;;;3.47;2.57;;;;;;;;;;4962434;28;20546;-86
2021/11/03 00:08:51;;;;;;;8.27;2.70;;;;;;;;;;4962117;28;20581;-86
2021/11/03 00:11:55;;;;;;;3.57;2.80;;;;;;;;;;4983888;28;20641;-86
2021/11/03 00:14:59;;;;;;;2.93;2.63;;;;;;;;;;4961482;28;20633;-86
2021/11/03 00:18:03;;;;;;;3.00;2.20;;;;;;;;;;4973054;28;20542;-86
2021/11/03 00:21:08;;;;;;;2.80;2.53;;;;;;;;;;4962084;28;20644;-86
2021/11/03 00:24:12;;;;;;;4.30;2.00;;;;;;;;;;4961710;28;20589;-86
2021/11/03 00:27:16;;;;;;;2.27;2.03;;;;;;;;;;4962543;28;20613;-86
2021/11/03 00:30:20;;;;;;;2.40;2.20;;;;;;;;;;4961912;28;20546;-85
2021/11/03 00:33:31;;;;;;;2.60;2.40;;;;;;;;;;4972487;28;21147;-86
2021/11/03 00:36:35;;;;;;;4.03;2.40;;;;;;;;;;4972709;28;20571;-86
2021/11/03 00:39:39;;;;;;;2.63;2.20;;;;;;;;;;4961368;28;20628;-86
2021/11/03 00:42:44;;;;;;;8.77;2.50;;;;;;;;;;4972128;28;20648;-86
2021/11/03 00:45:48;;;;;;;2.20;2.00;;;;;;;;;;4961177;28;20955;-86
2021/11/03 00:48:52;;;;;;;2.80;2.60;;;;;;;;;;4972382;28;20601;-86
2021/11/03 00:51:57;;;;;;;3.20;2.53;;;;;;;;;;4965028;28;20650;-86
2021/11/03 00:55:04;;;;;;;3.40;2.33;;;;;;;;;;4971787;28;21175;-86
2021/11/03 00:58:10;;;;;;;2.80;2.50;;;;;;;;;;4972521;28;21080;-85
2021/11/03 01:01:15;;;;;;;4.97;2.53;;;;;;;;;;4971888;28;20645;-85
2021/11/03 01:04:19;;;;;;;3.90;2.37;;;;;;;;;;4971662;28;20597;-86
2021/11/03 01:07:23;;;;;;;3.77;2.23;;;;;;;;;;4972397;28;21084;-86
2021/11/03 01:10:27;;;;;;;3.30;2.60;;;;;;;;;;4972096;28;20913;-86
2021/11/03 01:13:34;;;;;;;3.50;2.47;;;;;;;;;;4962053;28;20537;-86
2021/11/03 01:16:38;;;;;;;3.30;2.40;;;;;;;;;;4963542;28;20578;-86
2021/11/03 01:19:43;;;;;;;2.50;2.23;;;;;;;;;;4963838;28;20554;-86
2021/11/03 01:22:47;;;;;;;3.97;2.60;;;;;;;;;;4964954;28;20645;-86
2021/11/03 01:25:52;;;;;;;3.40;2.30;;;;;;;;;;4972432;28;20546;-86
2021/11/03 01:28:56;;;;;;;2.40;2.20;;;;;;;;;;4960668;28;21146;-86
2021/11/03 01:32:00;;;;;;;2.47;2.27;;;;;;;;;;4966804;28;20648;-86
2021/11/03 01:35:07;;;;;;;2.63;2.37;;;;;;;;;;4960847;28;20602;-86
2021/11/03 01:38:13;;;;;;;3.00;2.53;;;;;;;;;;4971882;28;20542;-86
2021/11/03 01:41:19;;;;;;;2.73;2.50;;;;;;;;;;4957652;28;20637;-86
2021/11/03 01:44:23;;;;;;;4.73;2.50;;;;;;;;;;4971790;28;20534;-86
2021/11/03 01:47:43;;;;;;;3.53;2.40;;;;;;;;;;4971604;28;20542;-86
2021/11/03 01:50:54;;;;;;;4.53;2.80;;;;;;;;;;4962524;28;20618;-86
2021/11/03 01:54:01;;;;;;;2.50;2.17;;;;;;;;;;4952024;28;20594;-86
2021/11/03 01:57:09;;;;;;;5.50;3.00;;;;;;;;;;4952045;28;20535;-86
2021/11/03 02:00:25;;;;;;;4.10;2.97;;;;;;;;;;4963427;28;20547;-86
2021/11/03 02:03:35;;;;;;;5.20;2.50;;;;;;;;;;4960704;28;20597;-85
2021/11/03 02:06:39;;;;;;;3.07;2.60;;;;;;;;;;4973286;28;21159;-85
2021/11/03 02:09:43;;;;;;;6.00;2.90;;;;;;;;;;4975714;28;20557;-85
2021/11/03 02:12:48;;;;;;;3.73;2.40;;;;;;;;;;4974969;28;20613;-85
2021/11/03 02:15:53;;;;;;;5.03;3.00;;;;;;;;;;4964337;28;20593;-86
2021/11/03 02:18:58;;;;;;;3.17;2.47;;;;;;;;;;4964351;28;20557;-86
2021/11/03 02:22:19;;;;;;;3.43;3.13;;;;;;;;;;4974878;28;20625;-86
2021/11/03 02:25:28;;;;;;;3.60;2.70;;;;;;;;;;4955469;28;20591;-85
2021/11/03 02:28:34;;;;;;;3.10;2.80;;;;;;;;;;4945419;28;20543;-86
2021/11/03 02:31:42;;;;;;;3.97;3.17;;;;;;;;;;4944773;28;20649;-85
2021/11/03 02:34:47;;;;;;;3.43;3.10;;;;;;;;;;4966393;28;20558;-86
2021/11/03 02:37:54;;;;;;;4.13;3.07;;;;;;;;;;4969492;28;21194;-86
2021/11/03 02:41:13;;;;;;;3.53;3.13;;;;;;;;;;4974379;28;20648;-85
2021/11/03 02:44:20;;;;;;;4.87;3.13;;;;;;;;;;4985862;28;20589;-86
2021/11/03 02:47:25;;;;;;;4.37;3.07;;;;;;;;;;4986146;28;20530;-86
2021/11/03 02:50:29;;;;;;;3.93;2.77;;;;;;;;;;4974475;28;20597;-85
2021/11/03 02:53:37;;;;;;;3.90;2.90;;;;;;;;;;4963612;28;20549;-85
2021/11/03 02:56:48;;;;;;;5.87;2.90;;;;;;;;;;4974542;28;20597;-86
2021/11/03 02:59:52;;;;;;;4.80;3.33;;;;;;;;;;4963674;28;21155;-86
2021/11/03 03:02:57;;;;;;;3.17;2.87;;;;;;;;;;4973903;28;20589;-86
2021/11/03 03:06:09;;;;;;;3.10;2.80;;;;;;;;;;4974398;28;20593;-85
2021/11/03 03:09:13;;;;;;;2.80;2.50;;;;;;;;;;4973878;28;20618;-86
2021/11/03 03:12:20;;;;;;;6.13;2.40;;;;;;;;;;4974640;28;20625;-86
2021/11/03 03:15:26;;;;;;;3.13;2.70;;;;;;;;;;4973926;28;20648;-85
2021/11/03 03:18:30;;;;;;;3.27;2.73;;;;;;;;;;4965226;28;20953;-85
2021/11/03 03:21:35;;;;;;;3.33;2.90;;;;;;;;;;4954751;28;20649;-85
2021/11/03 03:24:40;;;;;;;3.60;2.67;;;;;;;;;;4954897;28;20554;-85
2021/11/03 03:27:44;;;;;;;3.50;2.30;;;;;;;;;;4965840;28;20976;-85
2021/11/03 03:30:51;;;;;;;3.17;2.87;;;;;;;;;;4973867;28;20649;-86
2021/11/03 03:33:59;;;;;;;5.47;2.20;;;;;;;;;;4973386;28;20593;-86
2021/11/03 03:37:03;;;;;;;3.03;2.27;;;;;;;;;;4973695;28;20601;-85
2021/11/03 03:40:11;;;;;;;2.73;2.37;;;;;;;;;;4954632;28;21148;-85
2021/11/03 03:43:16;;;;;;;2.23;2.03;;;;;;;;;;4943963;28;20543;-86
2021/11/03 03:46:22;;;;;;;3.37;2.17;;;;;;;;;;4949746;28;20590;-85
2021/11/03 03:49:27;;;;;;;4.13;2.63;;;;;;;;;;4973396;28;21080;-86
2021/11/03 03:52:32;;;;;;;2.43;2.23;;;;;;;;;;4954684;28;20626;-86
2021/11/03 03:55:38;;;;;;;4.83;2.10;;;;;;;;;;4972163;28;21191;-85
2021/11/03 03:58:45;;;;;;;2.30;2.10;;;;;;;;;;4973341;28;20538;-86
2021/11/03 04:01:50;;;;;;;2.73;2.27;;;;;;;;;;4961756;28;20652;-86
2021/11/03 04:04:54;;;;;;;3.00;2.40;;;;;;;;;;4973401;28;20550;-85
2021/11/03 04:07:59;;;;;;;2.60;1.93;;;;;;;;;;4984306;28;20537;-85
2021/11/03 04:11:03;;;;;;;4.03;2.30;;;;;;;;;;4968457;28;20637;-85
2021/11/03 04:14:08;;;;;;;2.87;2.23;;;;;;;;;;4973004;28;20550;-86
2021/11/03 04:17:12;;;;;;;2.97;2.13;;;;;;;;;;4973305;28;21131;-85
2021/11/03 04:20:16;;;;;;;4.27;2.63;;;;;;;;;;4972520;28;20979;-85
2021/11/03 04:23:22;;;;;;;2.77;2.40;;;;;;;;;;4972516;28;20621;-85
2021/11/03 04:26:35;;;;;;;2.60;2.40;;;;;;;;;;4973010;28;20542;-86
2021/11/03 04:29:44;;;;;;;4.73;2.53;;;;;;;;;;4961323;28;20598;-85
2021/11/03 04:32:50;;;;;;;2.93;2.17;;;;;;;;;;4972797;28;21027;-85
2021/11/03 04:35:58;;;;;;;3.83;3.10;;;;;;;;;;4964667;28;20590;-85
2021/11/03 04:39:05;;;;;;;2.97;2.63;;;;;;;;;;4966887;28;20593;-85
2021/11/03 04:42:10;;;;;;;3.70;2.60;;;;;;;;;;4973213;28;20964;-85
2021/11/03 04:45:17;;;;;;;6.77;2.80;;;;;;;;;;4972477;28;20537;-85
2021/11/03 04:48:22;;;;;;;3.20;2.77;;;;;;;;;;4972331;28;20597;-86
2021/11/03 04:51:26;;;;;;;2.70;2.50;;;;;;;;;;4983168;28;21230;-85
2021/11/03 04:54:30;;;;;;;3.13;2.57;;;;;;;;;;4972629;28;21080;-85
2021/11/03 04:57:35;;;;;;;2.53;2.30;;;;;;;;;;4983397;28;20601;-85
2021/11/03 05:00:39;;;;;;;3.13;2.67;;;;;;;;;;4962973;28;20989;-86
2021/11/03 05:03:44;;;;;;;2.70;2.50;;;;;;;;;;4969839;28;20992;-85
2021/11/03 05:06:49;;;;;;;3.33;2.60;;;;;;;;;;4961144;28;20617;-85
2021/11/03 05:09:55;;;;;;;3.10;2.60;;;;;;;;;;4971984;28;20597;-86
2021/11/03 05:12:59;;;;;;;3.10;2.70;;;;;;;;;;4972136;28;20545;-86
2021/11/03 05:16:05;;;;;;;3.37;2.60;;;;;;;;;;4971680;28;20660;-86
2021/11/03 05:19:19;;;;;;;3.40;2.83;;;;;;;;;;4982466;28;20592;-85
2021/11/03 05:22:25;;;;;;;3.83;2.97;;;;;;;;;;4941661;28;21192;-86
2021/11/03 05:25:30;;;;;;;3.33;2.80;;;;;;;;;;4952439;28;20550;-86
2021/11/03 05:28:36;;;;;;;2.60;2.40;;;;;;;;;;4953951;28;20543;-86
2021/11/03 05:31:40;;;;;;;3.13;2.60;;;;;;;;;;4984450;23;20656;-89
2021/11/03 05:34:44;;;;;;;3.23;2.87;;;;;;;;;;5008022;28;20591;-89
2021/11/03 05:37:49;;;;;;;2.93;2.63;;;;;;;;;;4999322;28;20596;-89
2021/11/03 05:41:14;;;;;;;2.80;2.50;;;;;;;;;;5001620;28;20667;-89
2021/11/03 05:45:45;;;;;;;3.70;3.03;;;;;;;;;;4981703;28;20629;-89
2021/11/03 05:50:32;;;;;;;3.90;2.97;;;;;;;;;;5003349;28;20584;-89
2021/11/03 05:53:38;;;;;;;5.23;3.93;;;;;;;;;;4991097;28;20660;-89
2021/11/03 05:56:44;;;;;;;6.87;4.50;;;;;;;;;;4990907;28;21007;-89
2021/11/03 05:59:49;;;;;;;6.43;4.67;;;;;;;;;;4990760;28;20907;-89
2021/11/03 06:02:53;;;;;;;9.53;4.80;;;;;;;;;;4959994;28;20629;-89
2021/11/03 06:05:57;;;;;;;6.13;4.57;;;;;;;;;;4960625;28;20541;-89
2021/11/03 06:09:02;;;;;;;6.87;4.57;;;;;;;;;;4961609;28;20593;-89
2021/11/03 06:12:07;;;;;;;6.50;4.20;;;;;;;;;;4985591;28;20655;-89
2021/11/03 06:15:10;;;;;;;5.33;4.37;;;;;;;;;;4990615;28;20552;-89
2021/11/03 06:18:15;;;;;;;4.97;3.87;;;;;;;;;;4990653;28;21067;-89
2021/11/03 06:21:20;;;;;;;4.23;3.67;;;;;;;;;;4979122;28;20589;-89
2021/11/03 06:24:25;;;;;;;4.37;3.70;;;;;;;;;;4990525;28;20549;-89
2021/11/03 06:27:31;;;;;;;5.93;4.43;;;;;;;;;;4981923;28;20650;-90
2021/11/03 06:30:43;;;;;;;6.03;4.17;;;;;;;;;;4970723;28;20593;-89
2021/11/03 06:34:37;;;;;;;;;;;;;;;;;;;;;
2021/11/03 06:38:27;;;;;;;6.20;4.57;;;;;;;;;;4951757;28;20658;-90
2021/11/03 06:42:15;;;;;;;5.97;4.13;;;;;;;;;;4983814;28;20645;-89
2021/11/03 06:45:21;;;;;;;5.33;3.77;;;;;;;;;;4990238;28;20592;-89
2021/11/03 06:49:21;;;;;;;11.57;6.60;;;;;;;;;;4991831;28;20589;-89
2021/11/03 06:52:48;;;;;;;7.90;4.80;;;;;;;;;;4984944;28;20623;-90
2021/11/03 06:56:17;;;;;;;7.57;4.43;;;;;;;;;;4996047;28;20628;-88
2021/11/03 06:59:21;;;;;;;5.07;3.97;;;;;;;;;;4978108;28;20577;-88
2021/11/03 07:02:25;;;;;;;5.53;4.43;;;;;;;;;;5005046;28;20624;-88
2021/11/03 07:05:55;;;;;;;9.50;5.00;;;;;;;;;;4993994;28;20540;-87
2021/11/03 07:08:59;;;;;;;5.83;5.23;;;;;;;;;;4994134;28;20528;-88
2021/11/03 07:12:04;;;;;;;6.80;5.03;;;;;;;;;;4982838;28;20620;-88
2021/11/03 07:15:08;;;;;;;7.00;5.80;;;;;;;;;;4982296;28;20585;-88
2021/11/03 07:18:13;;;;;;;13.63;12.20;;;;;;;;;;4963318;28;20617;-88
2021/11/03 07:21:17;;;;;;;12.47;11.27;;;;;;;;;;4963273;28;20886;-88
2021/11/03 07:24:21;;;;;;;11.00;9.90;;;;;;;;;;4974384;28;20553;-88
2021/11/03 07:27:25;;;;;;;9.13;7.90;;;;;;;;;;4974338;28;20541;-88
2021/11/03 07:30:32;;;;;;;8.53;6.83;;;;;;;;;;4984904;28;20604;-88
2021/11/03 07:33:37;;;;;;;6.97;6.27;;;;;;;;;;4962659;28;20648;-88
2021/11/03 07:36:41;;;;;;;8.13;6.07;;;;;;;;;;4962941;28;20593;-88
2021/11/03 07:39:45;;;;;;;9.10;6.30;;;;;;;;;;4962973;28;20554;-88
2021/11/03 07:42:50;;;;;;;6.50;4.77;;;;;;;;;;4973886;28;21060;-87
2021/11/03 07:45:55;;;;;;;7.37;4.57;;;;;;;;;;4973989;28;20605;-88
2021/11/03 07:49:00;;;;;;;8.67;4.73;;;;;;;;;;4973657;28;20948;-88
2021/11/03 07:52:05;;;;;;;5.87;3.83;;;;;;;;;;4977091;28;20640;-88
2021/11/03 07:55:09;;;;;;;4.67;3.70;;;;;;;;;;4992933;28;20553;-88
2021/11/03 07:58:15;;;;;;;6.40;3.90;;;;;;;;;;4992790;28;20592;-88
2021/11/03 08:01:21;;;;;;;7.00;3.67;;;;;;;;;;4993086;28;20533;-88
2021/11/03 08:04:25;;;;;;;5.47;4.00;;;;;;;;;;4996206;28;20186;-88
2021/11/03 08:07:30;;;;;;;3.90;3.40;;;;;;;;;;5012323;28;20184;-88
2021/11/03 08:10:34;;;;;;;3.00;2.70;;;;;;;;;;5000983;28;20193;-88
2021/11/03 08:13:38;;;;;;;3.73;2.70;;;;;;;;;;5012177;28;20221;-88
2021/11/03 08:16:53;;;;;;;3.33;2.70;;;;;;;;;;5012440;28;20201;-88
2021/11/03 08:19:59;;;;;;;3.10;2.70;;;;;;;;;;5000952;28;20185;-88
2021/11/03 08:23:04;;;;;;;3.60;2.90;;;;;;;;;;5012088;28;20212;-88
2021/11/03 08:26:09;;;;;;;3.00;2.27;;;;;;;;;;5011900;28;20663;-88
2021/11/03 08:29:13;;;;;;;4.33;2.40;;;;;;;;;;5000720;28;20193;-89
2021/11/03 08:32:21;;;;;;;2.33;2.13;;;;;;;;;;5011553;28;20228;-88
2021/11/03 08:35:27;;;;;;;3.20;2.90;;;;;;;;;;5000872;28;20185;-89
2021/11/03 08:38:32;;;;;;;3.33;2.60;;;;;;;;;;5011600;28;20670;-88
2021/11/03 08:41:37;;;;;;;4.90;2.53;;;;;;;;;;5011260;28;20205;-88
2021/11/03 08:44:41;;;;;;;2.30;2.07;;;;;;;;;;5000659;28;20547;-88
2021/11/03 08:47:45;;;;;;;3.97;2.03;;;;;;;;;;4986389;28;20194;-89
2021/11/03 08:50:50;;;;;;;2.03;1.83;;;;;;;;;;4980830;28;20193;-89
2021/11/03 08:53:55;;;;;;;2.20;2.00;;;;;;;;;;4992099;28;20186;-89
2021/11/03 08:57:00;;;;;;;2.00;1.80;;;;;;;;;;4991715;28;20209;-89
2021/11/03 09:00:11;;;;;;;2.53;1.90;;;;;;;;;;5002819;28;20185;-89
2021/11/03 09:03:15;;;;;;;2.27;1.90;;;;;;;;;;4991617;28;20576;-88
2021/11/03 09:06:19;;;;;;;2.10;1.57;;;;;;;;;;4992113;28;20181;-89
2021/11/03 09:09:25;;;;;;;3.10;2.30;;;;;;;;;;4991719;28;20545;-89
2021/11/03 09:12:29;;;;;;;2.37;2.17;;;;;;;;;;4991437;28;20213;-88
2021/11/03 09:15:33;;;;;;;6.13;4.27;;;;;;;;;;5011062;28;20651;-88
2021/11/03 09:18:38;;;;;;;6.10;3.93;;;;;;;;;;5000435;28;20200;-89
2021/11/03 09:21:43;;;;;;;5.50;2.93;;;;;;;;;;5022284;28;20596;-88
2021/11/03 09:24:48;;;;;;;4.37;2.30;;;;;;;;;;4999897;28;20177;-89
2021/11/03 09:27:52;;;;;;;2.80;2.20;;;;;;;;;;4960822;28;20198;-88
2021/11/03 09:30:58;;;;;;;2.63;2.27;;;;;;;;;;4961087;28;20178;-88
2021/11/03 09:34:02;;;;;;;3.40;2.90;;;;;;;;;;4997265;28;20213;-89
2021/11/03 09:37:07;;;;;;;3.53;2.70;;;;;;;;;;4970012;28;20205;-89
2021/11/03 09:40:24;;;;;;;3.10;2.43;;;;;;;;;;4979427;28;20197;-88
2021/11/03 09:43:40;;;;;;;2.83;2.27;;;;;;;;;;4971453;28;20222;-90
2021/11/03 09:46:50;;;;;;;4.17;2.87;;;;;;;;;;4967797;28;20205;-91
2021/11/03 09:50:14;;;;;;;5.87;4.13;;;;;;;;;;4971405;28;20179;-90
2021/11/03 09:53:21;;;;;;;4.53;3.23;;;;;;;;;;4971123;28;20217;-90
2021/11/03 09:56:48;;;;;;;3.77;2.30;;;;;;;;;;4962509;28;20186;-90
2021/11/03 10:00:21;;;;;;;2.93;2.40;;;;;;;;;;4980090;28;20544;-90
2021/11/03 10:03:37;;;;;;;2.87;2.50;;;;;;;;;;5001851;28;20591;-90
2021/11/03 10:06:44;;;;;;;3.07;2.17;;;;;;;;;;4979845;28;20182;-90
2021/11/03 10:09:48;;;;;;;2.43;2.10;;;;;;;;;;4990759;28;20181;-90
2021/11/03 10:12:52;;;;;;;2.40;2.00;;;;;;;;;;4979359;28;20217;-90
2021/11/03 10:16:10;;;;;;;3.13;1.93;;;;;;;;;;4975613;28;20189;-90
2021/11/03 10:19:14;;;;;;;2.17;1.97;;;;;;;;;;4982175;28;20202;-90
2021/11/03 10:22:39;;;;;;;2.90;1.90;;;;;;;;;;4979330;28;20221;-90
2021/11/03 10:26:07;;;;;;;1.83;1.70;;;;;;;;;;4965189;28;20194;-90
2021/11/03 10:29:11;;;;;;;2.23;1.73;;;;;;;;;;4994971;28;20177;-90
2021/11/03 10:32:41;;;;;;;2.43;1.97;;;;;;;;;;4987114;28;20225;-90
2021/11/03 10:35:58;;;;;;;4.07;2.40;;;;;;;;;;4983254;28;20264;-90
2021/11/03 10:39:19;;;;;;;2.10;1.90;;;;;;;;;;4983482;28;20287;-90
2021/11/03 10:42:30;;;;;;;3.87;2.60;;;;;;;;;;4986319;28;20218;-90
2021/11/03 10:45:38;;;;;;;3.87;1.70;;;;;;;;;;4986571;28;20215;-89
2021/11/03 10:49:23;;;;;;;1.93;1.73;;;;;;;;;;4983309;28;20174;-91
2021/11/03 10:52:50;;;;;;;2.70;1.97;;;;;;;;;;4975273;28;20222;-90
2021/11/03 10:56:30;;;;;;;2.50;1.80;;;;;;;;;;4963493;28;20182;-90
2021/11/03 10:59:34;;;;;;;2.70;1.83;;;;;;;;;;4963485;28;20202;-90
2021/11/03 11:02:56;;;;;;;1.60;1.50;;;;;;;;;;4993196;28;20220;-90
2021/11/03 11:06:46;;;;;;;1.80;1.53;;;;;;;;;;4993957;28;20186;-90
2021/11/03 11:10:04;;;;;;;3.07;1.60;;;;;;;;;;4984306;28;20637;-90
2021/11/03 11:13:20;;;;;;;2.37;1.60;;;;;;;;;;5006267;28;20229;-90
2021/11/03 11:16:38;;;;;;;2.80;1.83;;;;;;;;;;4993640;28;20186;-90
2021/11/03 11:20:04;;;;;;;2.10;1.73;;;;;;;;;;5002087;28;20190;-90
2021/11/03 11:23:29;;;;;;;2.00;1.70;;;;;;;;;;4993621;28;20213;-91
2021/11/03 11:27:04;;;;;;;2.73;1.60;;;;;;;;;;4998835;28;20203;-90
2021/11/03 11:30:21;;;;;;;2.53;2.03;;;;;;;;;;4984417;28;20186;-90
2021/11/03 11:33:36;;;;;;;2.10;1.70;;;;;;;;;;5011638;23;20225;-89
2021/11/03 11:36:48;;;;;;;2.30;1.70;;;;;;;;;;4984207;28;20202;-89
2021/11/03 11:40:17;;;;;;;3.03;1.77;;;;;;;;;;4984106;28;20198;-89
2021/11/03 11:43:33;;;;;;;2.13;1.60;;;;;;;;;;4983780;28;20218;-89
2021/11/03 11:46:38;;;;;;;2.53;1.80;;;;;;;;;;4978220;28;20187;-89
2021/11/03 11:49:44;;;;;;;6.60;2.00;;;;;;;;;;4983956;28;20186;-89
2021/11/03 11:52:49;;;;;;;2.50;1.77;;;;;;;;;;4984407;28;20583;-89
2021/11/03 11:56:08;;;;;;;2.20;2.00;;;;;;;;;;4975861;28;20561;-89
2021/11/03 11:59:13;;;;;;;3.10;2.37;;;;;;;;;;4966445;28;20215;-89
2021/11/03 12:02:22;;;;;;;3.07;2.37;;;;;;;;;;4953753;28;20218;-89
2021/11/03 12:05:41;;;;;;;5.03;2.30;;;;;;;;;;4957509;28;20194;-89
2021/11/03 12:09:03;;;;;;;2.70;2.10;;;;;;;;;;4973009;28;20179;-89
2021/11/03 12:12:07;;;;;;;2.73;2.13;;;;;;;;;;4983996;28;20184;-89
2021/11/03 12:15:49;;;;;;;3.50;2.20;;;;;;;;;;4972676;28;20178;-90
2021/11/03 12:18:56;;;;;;;3.17;2.50;;;;;;;;;;4975575;28;20208;-89
2021/11/03 12:22:02;;;;;;;2.37;1.90;;;;;;;;;;4964636;28;20184;-89
2021/11/03 12:25:29;;;;;;;2.03;1.80;;;;;;;;;;4971594;28;20657;-89
2021/11/03 12:28:55;;;;;;;2.67;2.00;;;;;;;;;;5000794;28;20183;-90
2021/11/03 12:32:02;;;;;;;2.13;1.93;;;;;;;;;;4983554;28;20178;-90
2021/11/03 12:35:18;;;;;;;4.33;2.20;;;;;;;;;;4983875;28;20190;-89
2021/11/03 12:38:25;;;;;;;5.00;2.40;;;;;;;;;;4963981;28;20214;-89
2021/11/03 12:41:39;;;;;;;4.60;2.50;;;;;;;;;;4978917;28;20186;-89
2021/11/03 12:44:57;;;;;;;2.47;2.07;;;;;;;;;;4972396;28;20183;-89
2021/11/03 12:48:03;;;;;;;3.67;2.70;;;;;;;;;;4994700;28;20641;-90
2021/11/03 12:51:19;;;;;;;4.97;2.83;;;;;;;;;;4975599;28;20194;-90
2021/11/03 12:54:31;;;;;;;7.53;2.67;;;;;;;;;;4983268;28;20183;-90
2021/11/03 12:57:35;;;;;;;3.10;2.80;;;;;;;;;;4971786;28;20194;-89
2021/11/03 13:00:40;;;;;;;3.50;2.57;;;;;;;;;;4972092;28;20193;-90
2021/11/03 13:03:49;;;;;;;3.77;2.90;;;;;;;;;;4971814;28;20218;-90
2021/11/03 13:06:59;;;;;;;3.70;2.80;;;;;;;;;;4982842;28;20189;-90
2021/11/03 13:10:15;;;;;;;4.67;2.60;;;;;;;;;;4971900;28;20187;-89
2021/11/03 13:13:21;;;;;;;4.17;3.17;;;;;;;;;;4993896;28;20226;-90
2021/11/03 13:16:33;;;;;;;3.03;2.70;;;;;;;;;;4983066;28;20633;-90
2021/11/03 13:19:43;;;;;;;5.10;2.47;;;;;;;;;;4982895;28;20218;-89
2021/11/03 13:22:49;;;;;;;6.23;3.50;;;;;;;;;;4963888;28;20223;-90
2021/11/03 13:25:58;;;;;;;5.20;2.67;;;;;;;;;;4952639;28;20199;-89
2021/11/03 13:29:05;;;;;;;4.93;2.90;;;;;;;;;;4984357;28;20190;-89
2021/11/03 13:32:21;;;;;;;2.90;2.40;;;;;;;;;;4963277;28;20175;-89
2021/11/03 13:35:30;;;;;;;3.10;2.43;;;;;;;;;;4963440;28;20191;-89
2021/11/03 13:38:36;;;;;;;6.77;5.27;;;;;;;;;;4963073;28;20207;-89
2021/11/03 13:41:44;;;;;;;6.13;4.20;;;;;;;;;;4981525;28;20194;-89
2021/11/03 13:44:58;;;;;;;4.60;3.50;;;;;;;;;;4982315;28;20190;-89
2021/11/03 13:48:17;;;;;;;4.10;3.20;;;;;;;;;;4982053;28;20198;-90
2021/11/03 13:51:26;;;;;;;4.10;3.63;;;;;;;;;;4978688;28;20191;-88
2021/11/03 13:54:35;;;;;;;4.30;3.40;;;;;;;;;;4982365;28;20190;-88
2021/11/03 13:57:39;;;;;;;4.23;3.30;;;;;;;;;;4982409;28;20182;-88
2021/11/03 14:01:00;;;;;;;6.50;4.20;;;;;;;;;;4970908;28;20174;-89
2021/11/03 14:04:14;;;;;;;6.53;3.93;;;;;;;;;;4993150;28;20225;-88
2021/11/03 14:07:24;;;;;;;4.27;3.47;;;;;;;;;;4973799;28;20187;-88
2021/11/03 14:10:29;;;;;;;5.53;3.53;;;;;;;;;;4962576;28;20187;-88
2021/11/03 14:13:34;;;;;;;5.07;3.33;;;;;;;;;;4951825;28;20682;-88
2021/11/03 14:17:11;;;;;;;3.70;3.17;;;;;;;;;;4951707;28;20190;-88
2021/11/03 14:20:33;;;;;;;4.40;3.50;;;;;;;;;;4980732;28;20214;-88
2021/11/03 14:23:37;;;;;;;5.73;3.60;;;;;;;;;;4981196;28;20226;-88
2021/11/03 14:26:42;;;;;;;4.73;3.77;;;;;;;;;;4971138;28;20657;-88
2021/11/03 14:29:46;;;;;;;4.77;3.57;;;;;;;;;;4970485;28;20561;-88
2021/11/03 14:32:51;;;;;;;5.37;4.10;;;;;;;;;;4992629;28;20229;-88
2021/11/03 14:35:58;;;;;;;5.77;4.30;;;;;;;;;;4992949;28;20190;-88
2021/11/03 14:39:03;;;;;;;7.30;3.90;;;;;;;;;;4981080;28;20546;-88
2021/11/03 14:42:07;;;;;;;5.03;4.07;;;;;;;;;;4973416;28;20202;-88
2021/11/03 14:45:12;;;;;;;4.47;3.73;;;;;;;;;;4973699;28;20191;-87
2021/11/03 14:48:20;;;;;;;4.87;3.80;;;;;;;;;;4962611;28;20183;-88
2021/11/03 14:51:26;;;;;;;5.40;4.13;;;;;;;;;;4951807;28;20630;-88
2021/11/03 14:54:31;;;;;;;4.27;3.77;;;;;;;;;;4973657;28;20183;-88
2021/11/03 14:57:36;;;;;;;5.33;3.97;;;;;;;;;;4962502;28;20187;-88
2021/11/03 15:00:48;;;;;;;7.63;4.37;;;;;;;;;;4984771;28;20223;-88
2021/11/03 15:03:53;;;;;;;7.33;5.30;;;;;;;;;;4951228;28;20562;-88
2021/11/03 15:06:57;;;;;;;7.77;5.33;;;;;;;;;;4962738;28;20190;-88
2021/11/03 15:10:03;;;;;;;6.63;5.33;;;;;;;;;;4951648;28;20622;-88
2021/11/03 15:13:06;;;;;;;7.70;4.57;;;;;;;;;;4962331;28;20214;-88
2021/11/03 15:16:29;;;;;;;12.47;5.80;;;;;;;;;;4972083;28;20560;-89
2021/11/03 15:19:39;;;;;;;8.30;5.13;;;;;;;;;;4973674;28;20210;-89
2021/11/03 15:22:43;;;;;;;7.33;5.67;;;;;;;;;;4973871;28;20210;-90
2021/11/03 15:25:48;;;;;;;7.57;6.00;;;;;;;;;;4976821;28;20191;-88
2021/11/03 15:28:53;;;;;;;7.60;4.73;;;;;;;;;;4968992;28;20552;-87
2021/11/03 15:37:05;;;;;;;8.87;6.87;;;;;;;;;;4970695;28;20198;-89
2021/11/03 15:41:49;;;;;;;10.13;7.27;;;;;;;;;;4939327;29;20730;-89
2021/11/03 15:44:56;;;;;;;10.87;8.90;;;;;;;;;;4960790;28;20569;-90
2021/11/03 15:48:02;;;;;;;11.53;7.70;;;;;;;;;;4972171;28;20202;-89
2021/11/03 15:51:06;;;;;;;11.23;7.43;;;;;;;;;;4941465;28;20194;-89
2021/11/03 15:54:14;;;;;;;9.23;7.33;;;;;;;;;;4976741;28;20222;-89
2021/11/03 15:57:19;;;;;;;9.97;7.17;;;;;;;;;;4971120;28;20234;-90
2021/11/03 16:00:26;;;;;;;8.40;7.13;;;;;;;;;;4960027;28;20210;-90
2021/11/03 16:03:52;;;;;;;8.27;7.03;;;;;;;;;;4971385;28;20214;-90
2021/11/03 16:06:57;;;;;;;9.80;8.03;;;;;;;;;;4970147;28;20250;-90
2021/11/03 16:10:02;;;;;;;9.80;7.83;;;;;;;;;;4959925;28;20182;-90
2021/11/03 16:13:08;;;;;;;10.80;8.30;;;;;;;;;;4972170;28;20218;-90
2021/11/03 16:16:12;;;;;;;14.70;8.93;;;;;;;;;;4959933;28;20198;-90
2021/11/03 16:19:18;;;;;;;10.33;8.63;;;;;;;;;;4964374;28;20230;-90
2021/11/03 16:22:27;;;;;;;12.27;8.67;;;;;;;;;;4953568;28;20207;-89
2021/11/03 16:25:39;;;;;;;13.40;9.20;;;;;;;;;;4964512;28;20197;-90
2021/11/03 16:28:44;;;;;;;9.93;8.77;;;;;;;;;;4952574;28;20182;-89
2021/11/03 16:31:52;;;;;;;11.00;8.93;;;;;;;;;;4963721;28;20202;-90
2021/11/03 16:34:57;;;;;;;12.83;9.10;;;;;;;;;;4983141;28;20205;-90
2021/11/03 16:38:01;;;;;;;11.30;8.67;;;;;;;;;;4978083;28;20186;-91
2021/11/03 16:41:28;;;;;;;12.27;8.80;;;;;;;;;;4971797;28;20218;-91
2021/11/03 16:44:33;;;;;;;10.33;8.30;;;;;;;;;;4967985;28;20546;-90
2021/11/03 16:47:38;;;;;;;12.20;9.67;;;;;;;;;;4983132;28;20194;-90
2021/11/03 16:50:51;;;;;;;10.17;9.17;;;;;;;;;;4982066;28;20178;-90
2021/11/03 16:54:01;;;;;;;10.80;9.00;;;;;;;;;;4980641;28;20214;-91
2021/11/03 16:57:07;;;;;;;11.97;8.37;;;;;;;;;;4970788;28;20554;-90
2021/11/03 17:00:28;;;;;;;11.43;8.87;;;;;;;;;;4981142;28;20217;-92
2021/11/03 17:03:33;;;;;;;11.00;8.80;;;;;;;;;;4969558;28;20214;-90
2021/11/03 17:06:43;;;;;;;9.63;8.60;;;;;;;;;;4960557;28;20182;-89
2021/11/03 17:09:50;;;;;;;9.60;8.57;;;;;;;;;;4992209;28;20186;-90
2021/11/03 17:12:54;;;;;;;10.60;8.77;;;;;;;;;;4964245;28;20227;-91
2021/11/03 17:15:58;;;;;;;9.63;8.33;;;;;;;;;;4980537;28;20190;-90
2021/11/03 17:19:03;;;;;;;9.50;8.50;;;;;;;;;;4968586;28;20178;-90
2021/11/03 17:22:10;;;;;;;9.03;7.37;;;;;;;;;;4958260;28;20581;-90
2021/11/03 17:25:17;;;;;;;8.90;7.77;;;;;;;;;;4970210;28;20186;-90
2021/11/03 17:28:27;;;;;;;8.63;7.13;;;;;;;;;;4993038;28;20645;-89
2021/11/03 17:31:33;;;;;;;10.70;8.27;;;;;;;;;;5014132;28;20186;-90
2021/11/03 17:34:37;;;;;;;10.40;7.77;;;;;;;;;;4982016;28;20328;-91
2021/11/03 17:37:41;;;;;;;12.77;8.93;;;;;;;;;;4982167;28;20182;-91
2021/11/03 17:40:49;;;;;;;14.10;8.90;;;;;;;;;;4982642;28;20205;-91
2021/11/03 17:43:59;;;;;;;11.60;8.93;;;;;;;;;;4982857;28;20213;-91
2021/11/03 17:47:05;;;;;;;23.23;11.90;;;;;;;;;;4963846;28;20183;-90
2021/11/03 17:50:37;;;;;;;43.87;18.70;;;;;;;;;;4963342;28;20523;-90
2021/11/03 17:53:42;;;;;;;42.60;19.30;;;;;;;;;;4981154;28;20222;-93
2021/11/03 17:56:47;;;;;;;23.37;15.30;;;;;;;;;;4979086;28;20186;-90
2021/11/03 17:59:52;;;;;;;16.67;14.87;;;;;;;;;;4967984;28;20569;-90
2021/11/03 18:02:56;;;;;;;12.83;11.20;;;;;;;;;;4979833;28;20558;-91
2021/11/03 18:06:01;;;;;;;11.33;10.07;;;;;;;;;;4979610;28;20182;-91
2021/11/03 18:09:07;;;;;;;10.60;8.33;;;;;;;;;;4967672;28;20201;-90
2021/11/03 18:12:21;;;;;;;10.37;8.80;;;;;;;;;;4979154;28;20175;-91
2021/11/03 18:15:25;;;;;;;9.70;8.23;;;;;;;;;;4979281;28;20191;-90
2021/11/03 18:18:30;;;;;;;10.07;9.03;;;;;;;;;;4978647;28;20197;-90
2021/11/03 18:21:34;;;;;;;10.40;9.00;;;;;;;;;;4967563;28;20210;-90
2021/11/03 18:24:39;;;;;;;13.73;11.10;;;;;;;;;;4968819;28;20178;-90
2021/11/03 18:27:45;;;;;;;11.10;8.97;;;;;;;;;;4979066;28;20194;-90
2021/11/03 18:30:54;;;;;;;8.47;7.23;;;;;;;;;;4959855;28;20199;-89
2021/11/03 18:33:58;;;;;;;10.57;7.77;;;;;;;;;;4969556;28;20717;-89
2021/11/03 18:37:03;;;;;;;8.00;6.63;;;;;;;;;;4970827;28;20175;-89
2021/11/03 18:40:08;;;;;;;9.50;8.30;;;;;;;;;;4959963;28;20211;-89
2021/11/03 18:43:25;;;;;;;10.50;7.80;;;;;;;;;;4978967;28;20585;-90
2021/11/03 18:46:29;;;;;;;10.90;7.67;;;;;;;;;;4967708;28;20190;-90
2021/11/03 18:49:36;;;;;;;8.37;7.30;;;;;;;;;;4969921;28;20194;-90
2021/11/03 18:52:41;;;;;;;8.63;7.43;;;;;;;;;;4985114;28;20213;-90
2021/11/03 18:55:47;;;;;;;9.70;7.80;;;;;;;;;;4987911;28;20540;-89
2021/11/03 18:58:53;;;;;;;9.10;7.23;;;;;;;;;;4966336;28;20202;-89
2021/11/03 19:01:57;;;;;;;12.27;7.83;;;;;;;;;;4965476;28;20650;-89